createdAt,value
2022-12-22T00:02:45.631Z,9.20
2022-12-22T00:05:37.699Z,9.20
2022-12-22T00:08:24.516Z,9.30
2022-12-22T00:11:11.961Z,9.30
2022-12-22T00:14:00.793Z,9.30
2022-12-22T00:16:55.349Z,9.20
2022-12-22T00:19:42.021Z,9.20
2022-12-22T00:22:41.082Z,9.20
2022-12-22T00:25:32.344Z,9.30
2022-12-22T00:28:17.945Z,9.20
2022-12-22T00:31:04.613Z,9.20
2022-12-22T00:33:50.309Z,9.20
2022-12-22T00:36:43.098Z,9.20
2022-12-22T00:39:32.823Z,9.10
2022-12-22T00:42:18.488Z,9.10
2022-12-22T00:45:04.204Z,9.10
2022-12-22T00:47:50.692Z,9.10
2022-12-22T00:50:37.003Z,9.10
2022-12-22T00:53:24.157Z,9.10
2022-12-22T00:56:09.854Z,9.00
2022-12-22T00:58:56.008Z,9.00
2022-12-22T01:01:41.767Z,9.00
2022-12-22T01:04:30.608Z,8.90
2022-12-22T01:07:16.693Z,8.90
2022-12-22T01:10:08.550Z,9.00
2022-12-22T01:12:57.465Z,8.90
2022-12-22T01:15:45.920Z,8.90
2022-12-22T01:18:31.653Z,8.90
2022-12-22T01:21:17.963Z,9.00
2022-12-22T01:24:04.202Z,9.10
2022-12-22T01:26:49.991Z,9.10
2022-12-22T01:29:35.636Z,9.10
2022-12-22T01:32:21.337Z,9.00
2022-12-22T01:35:07.052Z,9.10
2022-12-22T01:37:52.681Z,9.10
2022-12-22T01:40:42.029Z,9.20
2022-12-22T01:43:44.697Z,9.20
2022-12-22T01:46:47.367Z,9.20
2022-12-22T01:49:46.835Z,9.10
2022-12-22T01:52:36.677Z,9.20
2022-12-22T01:55:28.791Z,9.20
2022-12-22T01:58:15.596Z,9.20
2022-12-22T02:01:01.911Z,9.20
2022-12-22T02:03:47.593Z,9.20
2022-12-22T02:07:00.182Z,9.20
2022-12-22T02:10:44.472Z,9.30
2022-12-22T02:13:42.849Z,9.20
2022-12-22T02:17:00.124Z,9.30
2022-12-22T02:20:36.225Z,9.30
2022-12-22T02:23:52.373Z,9.30
2022-12-22T02:26:54.792Z,9.30
2022-12-22T02:29:47.606Z,9.30
2022-12-22T02:32:34.191Z,9.30
2022-12-22T02:35:19.957Z,9.30
2022-12-22T02:38:16.615Z,9.30
2022-12-22T02:41:23.120Z,9.30
2022-12-22T02:44:54.851Z,9.30
2022-12-22T02:48:02.303Z,9.30
2022-12-22T02:51:16.809Z,9.30
2022-12-22T02:54:02.652Z,9.30
2022-12-22T02:56:48.084Z,9.30
2022-12-22T02:59:34.062Z,9.30
2022-12-22T03:02:20.255Z,9.30
2022-12-22T03:05:05.840Z,9.30
2022-12-22T03:07:51.503Z,9.30
2022-12-22T03:10:37.059Z,9.40
2022-12-22T03:13:22.791Z,9.40
2022-12-22T03:16:08.518Z,9.40
2022-12-22T03:18:54.244Z,9.40
2022-12-22T03:21:39.856Z,9.30
2022-12-22T03:24:25.995Z,9.30
2022-12-22T03:26:53.171Z,9.30
2022-12-22T03:29:20.271Z,9.30
2022-12-22T03:31:47.398Z,9.30
2022-12-22T03:34:14.596Z,9.30
2022-12-22T03:36:41.714Z,9.30
2022-12-22T03:39:09.947Z,9.40
2022-12-22T03:41:55.283Z,9.40
2022-12-22T03:44:40.894Z,9.40
2022-12-22T03:47:09.810Z,9.40
2022-12-22T03:49:37.021Z,9.40
2022-12-22T03:52:04.428Z,9.40
2022-12-22T03:54:31.522Z,9.40
2022-12-22T03:56:58.896Z,9.40
2022-12-22T03:59:26.079Z,9.40
2022-12-22T04:01:54.893Z,9.50
2022-12-22T04:04:28.546Z,9.40
2022-12-22T04:06:55.728Z,9.40
2022-12-22T04:09:22.944Z,9.40
2022-12-22T04:12:08.667Z,9.40
2022-12-22T04:14:36.126Z,9.40
2022-12-22T04:17:05.370Z,9.40
2022-12-22T04:19:32.923Z,9.40
2022-12-22T04:22:00.502Z,9.40
2022-12-22T04:24:27.604Z,9.50
2022-12-22T04:26:54.789Z,9.40
2022-12-22T04:29:21.857Z,9.40
2022-12-22T04:31:49.168Z,9.40
2022-12-22T04:34:16.300Z,9.40
2022-12-22T04:36:43.390Z,9.40
2022-12-22T04:39:10.629Z,9.50
2022-12-22T04:41:37.790Z,9.50
2022-12-22T04:44:04.961Z,9.50
2022-12-22T04:46:33.453Z,9.50
2022-12-22T04:49:00.873Z,9.50
2022-12-22T04:51:28.791Z,9.50
2022-12-22T04:53:56.181Z,9.40
2022-12-22T04:56:23.387Z,9.40
2022-12-22T04:58:50.462Z,9.40
2022-12-22T05:01:19.003Z,9.50
2022-12-22T05:03:47.044Z,9.50
2022-12-22T05:06:15.289Z,9.50
2022-12-22T05:08:42.769Z,9.50
2022-12-22T05:11:10.042Z,9.50
2022-12-22T05:13:37.480Z,9.50
2022-12-22T05:16:08.389Z,9.50
2022-12-22T05:18:37.281Z,9.50
2022-12-22T05:21:11.992Z,9.40
2022-12-22T05:23:39.149Z,9.40
2022-12-22T05:26:07.253Z,9.40
2022-12-22T05:28:34.675Z,9.40
2022-12-22T05:31:08.647Z,9.40
2022-12-22T05:33:36.669Z,9.40
2022-12-22T05:36:04.181Z,9.30
2022-12-22T05:38:31.327Z,9.40
2022-12-22T05:41:03.536Z,9.30
2022-12-22T05:43:33.198Z,9.30
2022-12-22T05:46:06.367Z,9.30
2022-12-22T05:48:37.994Z,9.30
2022-12-22T05:51:07.449Z,9.30
2022-12-22T05:53:34.595Z,9.30
2022-12-22T05:56:01.866Z,9.40
2022-12-22T05:58:28.961Z,9.40
2022-12-22T06:01:01.716Z,9.40
2022-12-22T06:03:30.562Z,9.40
2022-12-22T06:05:58.997Z,9.40
2022-12-22T06:08:27.459Z,9.40
2022-12-22T06:10:57.303Z,9.40
2022-12-22T06:13:25.751Z,9.40
2022-12-22T06:15:53.208Z,9.50
2022-12-22T06:18:20.374Z,9.50
2022-12-22T06:20:47.662Z,9.50
2022-12-22T06:23:15.867Z,9.50
2022-12-22T06:25:43.069Z,9.50
2022-12-22T06:28:10.203Z,9.50
2022-12-22T06:30:37.915Z,9.50
2022-12-22T06:33:05.356Z,9.40
2022-12-22T06:35:32.459Z,9.50
2022-12-22T06:37:59.637Z,9.40
2022-12-22T06:40:26.665Z,9.50
2022-12-22T06:43:10.130Z,9.50
2022-12-22T06:45:41.730Z,9.50
2022-12-22T06:48:11.055Z,9.50
2022-12-22T06:50:38.410Z,9.50
2022-12-22T06:53:06.733Z,9.50
2022-12-22T06:55:33.992Z,9.50
2022-12-22T06:58:01.234Z,9.50
2022-12-22T07:00:29.857Z,9.40
2022-12-22T07:02:57.179Z,9.40
2022-12-22T07:05:24.915Z,9.40
2022-12-22T07:07:52.740Z,9.40
2022-12-22T07:10:39.844Z,9.40
2022-12-22T07:13:19.421Z,9.50
2022-12-22T07:15:53.752Z,9.50
2022-12-22T07:18:25.131Z,9.50
2022-12-22T07:20:52.422Z,9.40
2022-12-22T07:23:19.480Z,9.40
2022-12-22T07:25:46.590Z,9.30
2022-12-22T07:28:16.771Z,9.30
2022-12-22T07:30:47.980Z,9.30
2022-12-22T07:33:15.091Z,9.30
2022-12-22T07:35:42.135Z,9.20
2022-12-22T07:38:09.393Z,9.30
2022-12-22T07:40:41.359Z,9.30
2022-12-22T07:43:09.236Z,9.30
2022-12-22T07:45:36.824Z,9.30
2022-12-22T07:48:28.170Z,9.30
2022-12-22T07:51:05.186Z,9.30
2022-12-22T07:53:34.247Z,9.30
2022-12-22T07:56:06.831Z,9.30
2022-12-22T07:58:34.214Z,9.30
2022-12-22T08:01:02.053Z,9.20
2022-12-22T08:03:29.425Z,9.20
2022-12-22T08:05:56.732Z,9.20
2022-12-22T08:08:23.841Z,9.20
2022-12-22T08:10:51.057Z,9.30
2022-12-22T08:13:18.231Z,9.20
2022-12-22T08:15:45.409Z,9.20
2022-12-22T08:18:12.600Z,9.20
2022-12-22T08:20:39.625Z,9.20
2022-12-22T08:23:07.024Z,9.20
2022-12-22T08:25:35.253Z,9.20
2022-12-22T08:28:03.157Z,9.30
2022-12-22T08:30:30.486Z,9.30
2022-12-22T08:32:57.733Z,9.30
2022-12-22T08:35:24.908Z,9.40
2022-12-22T08:37:53.744Z,9.40
2022-12-22T08:40:29.150Z,9.50
2022-12-22T08:43:04.455Z,9.50
2022-12-22T08:45:31.588Z,9.60
2022-12-22T08:47:58.796Z,9.60
2022-12-22T08:50:25.905Z,9.70
2022-12-22T08:52:53.075Z,9.70
2022-12-22T08:55:20.111Z,9.70
2022-12-22T08:57:55.860Z,9.80
2022-12-22T09:00:23.941Z,9.80
2022-12-22T09:02:51.640Z,9.80
2022-12-22T09:05:19.816Z,9.80
2022-12-22T09:07:48.770Z,9.80
2022-12-22T09:10:16.346Z,9.80
2022-12-22T09:12:43.431Z,9.70
2022-12-22T09:15:11.097Z,9.70
2022-12-22T09:17:40.675Z,9.60
2022-12-22T09:20:08.839Z,9.70
2022-12-22T09:22:35.995Z,9.70
2022-12-22T09:25:05.444Z,9.70
2022-12-22T09:27:32.605Z,9.60
2022-12-22T09:29:59.810Z,9.70
2022-12-22T09:32:28.408Z,9.60
2022-12-22T09:34:56.132Z,9.70
2022-12-22T09:37:23.247Z,9.70
2022-12-22T09:39:51.722Z,9.70
2022-12-22T09:42:21.360Z,9.80
2022-12-22T09:44:51.962Z,9.80
2022-12-22T09:47:40.456Z,9.80
2022-12-22T09:50:16.473Z,9.80
2022-12-22T09:52:50.353Z,9.80
2022-12-22T09:55:36.580Z,9.80
2022-12-22T09:58:04.006Z,9.80
2022-12-22T10:00:37.069Z,9.80
2022-12-22T10:03:40.981Z,9.80
2022-12-22T10:06:39.778Z,9.80
2022-12-22T10:09:48.250Z,9.80
2022-12-22T10:12:15.083Z,9.70
2022-12-22T10:14:46.218Z,9.60
2022-12-22T10:17:30.397Z,9.50
2022-12-22T10:20:27.711Z,9.40
2022-12-22T10:22:59.364Z,9.40
2022-12-22T10:28:35.362Z,9.40
2022-12-22T10:31:24.204Z,9.40
2022-12-22T10:33:57.390Z,9.30
2022-12-22T10:36:31.512Z,9.30
2022-12-22T10:39:11.623Z,9.30
2022-12-22T10:41:45.748Z,9.30
2022-12-22T10:44:15.935Z,9.20
2022-12-22T10:46:51.670Z,9.20
2022-12-22T10:49:29.992Z,9.30
2022-12-22T10:52:37.800Z,9.40
2022-12-22T10:55:30.390Z,9.40
2022-12-22T10:58:18.344Z,9.40
2022-12-22T11:01:04.892Z,9.50
2022-12-22T11:03:32.994Z,9.50
2022-12-22T11:06:01.878Z,9.50
2022-12-22T11:08:34.351Z,9.50
2022-12-22T11:11:14.697Z,9.50
2022-12-22T11:13:47.968Z,9.50
2022-12-22T11:16:41.962Z,9.60
2022-12-22T11:19:18.408Z,9.60
2022-12-22T11:22:49.358Z,9.60
2022-12-22T11:25:30.125Z,9.70
2022-12-22T11:28:30.890Z,9.70
2022-12-22T11:31:22.216Z,9.80
2022-12-22T11:34:46.348Z,9.80
2022-12-22T11:37:36.379Z,9.80
2022-12-22T11:40:29.414Z,9.90
2022-12-22T11:43:39.848Z,9.90
2022-12-22T11:47:00.250Z,9.80
2022-12-22T11:49:39.225Z,9.80
2022-12-22T11:52:46.900Z,9.90
2022-12-22T11:55:45.770Z,10.00
2022-12-22T11:58:39.809Z,10.00
2022-12-22T12:01:34.939Z,10.00
2022-12-22T12:04:45.418Z,10.00
2022-12-22T12:07:46.250Z,9.90
2022-12-22T12:10:20.580Z,9.90
2022-12-22T12:13:03.998Z,9.90
2022-12-22T12:15:41.498Z,9.90
2022-12-22T12:18:35.739Z,9.90
2022-12-22T12:21:28.378Z,9.90
2022-12-22T12:24:30.835Z,9.90
2022-12-22T12:27:02.976Z,9.90
2022-12-22T12:29:41.333Z,9.90
2022-12-22T12:32:31.052Z,9.90
2022-12-22T12:35:36.225Z,9.90
2022-12-22T12:39:05.639Z,9.90
2022-12-22T12:41:48.951Z,9.90
2022-12-22T12:44:23.354Z,9.90
2022-12-22T12:46:55.240Z,9.80
2022-12-22T12:49:34.634Z,9.80
2022-12-22T12:52:12.384Z,9.80
2022-12-22T12:54:49.933Z,9.90
2022-12-22T12:57:48.461Z,9.90
2022-12-22T13:00:34.733Z,9.90
2022-12-22T13:04:01.080Z,9.90
2022-12-22T13:06:51.888Z,9.90
2022-12-22T13:12:51.640Z,9.90
2022-12-22T13:15:37.591Z,10.00
2022-12-22T13:18:49.588Z,10.00
2022-12-22T13:21:52.477Z,10.00
2022-12-22T13:24:26.386Z,9.90
2022-12-22T13:26:56.296Z,9.90
2022-12-22T13:29:44.625Z,9.90
2022-12-22T13:32:17.813Z,9.90
2022-12-22T13:35:33.333Z,9.80
2022-12-22T13:37:54.172Z,9.80
2022-12-22T13:40:24.869Z,9.70
2022-12-22T13:43:01.719Z,9.60
2022-12-22T13:45:34.181Z,9.70
2022-12-22T13:48:19.998Z,9.70
2022-12-22T13:51:09.490Z,9.60
2022-12-22T13:56:43.511Z,9.60
2022-12-22T13:59:35.595Z,9.60
2022-12-22T14:02:15.619Z,9.50
2022-12-22T14:05:08.377Z,9.40
2022-12-22T14:07:35.551Z,9.40
2022-12-22T14:10:02.897Z,9.40
2022-12-22T14:12:45.214Z,9.40
2022-12-22T14:15:20.292Z,9.40
2022-12-22T14:17:52.883Z,9.40
2022-12-22T14:20:36.597Z,9.40
2022-12-22T14:23:43.431Z,9.40
2022-12-22T14:26:24.628Z,9.50
2022-12-22T14:28:56.030Z,9.60
2022-12-22T14:31:23.172Z,9.70
2022-12-22T14:34:28.613Z,9.70
2022-12-22T14:36:59.157Z,9.70
2022-12-22T14:39:32.490Z,9.80
2022-12-22T14:42:05.389Z,9.80
2022-12-22T14:44:45.115Z,9.80
2022-12-22T14:47:12.465Z,9.80
2022-12-22T14:49:50.333Z,9.80
2022-12-22T14:52:44.191Z,9.90
2022-12-22T14:55:40.448Z,10.00
2022-12-22T14:58:16.868Z,10.00
2022-12-22T15:00:51.882Z,9.90
2022-12-22T15:03:36.119Z,9.90
2022-12-22T15:06:28.911Z,9.90
2022-12-22T15:09:16.143Z,9.90
2022-12-22T15:11:52.319Z,9.90
2022-12-22T15:14:26.147Z,9.80
2022-12-22T15:17:01.864Z,9.70
2022-12-22T15:19:35.737Z,9.70
2022-12-22T15:22:03.613Z,9.70
2022-12-22T15:24:30.749Z,9.80
2022-12-22T15:26:57.836Z,9.80
2022-12-22T15:29:25.025Z,9.80
2022-12-22T15:31:52.380Z,9.70
2022-12-22T15:34:26.087Z,9.70
2022-12-22T15:36:53.635Z,9.70
2022-12-22T15:39:23.391Z,9.70
2022-12-22T15:41:50.777Z,9.60
2022-12-22T15:44:17.943Z,9.60
2022-12-22T15:46:56.976Z,9.50
2022-12-22T15:49:27.365Z,9.50
2022-12-22T15:52:02.272Z,9.40
2022-12-22T15:54:33.142Z,9.30
2022-12-22T15:57:01.169Z,9.30
2022-12-22T15:59:29.797Z,9.20
2022-12-22T16:02:01.214Z,9.20
2022-12-22T16:04:29.956Z,9.20
2022-12-22T16:06:59.279Z,9.10
2022-12-22T16:09:31.390Z,9.20
2022-12-22T16:11:59.070Z,9.10
2022-12-22T16:14:26.243Z,9.10
2022-12-22T16:16:53.354Z,9.10
2022-12-22T16:19:20.628Z,9.10
2022-12-22T16:21:49.658Z,9.10
2022-12-22T16:24:31.619Z,9.10
2022-12-22T16:26:59.375Z,9.10
2022-12-22T16:29:27.667Z,9.10
2022-12-22T16:32:17.422Z,9.10
2022-12-22T16:34:45.733Z,9.10
2022-12-22T16:37:12.849Z,9.10
2022-12-22T16:39:40.095Z,9.10
2022-12-22T16:45:00.328Z,9.10
2022-12-22T16:47:33.003Z,9.00
2022-12-22T16:50:04.186Z,9.00
2022-12-22T16:52:42.026Z,9.00
2022-12-22T16:55:20.485Z,9.00
2022-12-22T16:57:48.404Z,9.00
2022-12-22T17:00:19.879Z,9.00
2022-12-22T17:02:53.584Z,9.00
2022-12-22T17:05:38.753Z,9.00
2022-12-22T17:08:28.385Z,9.00
2022-12-22T17:11:01.138Z,9.00
2022-12-22T17:13:30.620Z,9.00
2022-12-22T17:15:57.966Z,9.10
2022-12-22T17:18:26.357Z,9.00
2022-12-22T17:20:58.157Z,9.10
2022-12-22T17:23:36.948Z,9.00
2022-12-22T17:26:09.821Z,9.00
2022-12-22T17:28:38.659Z,9.00
2022-12-22T17:31:06.659Z,9.00
2022-12-22T17:33:33.948Z,9.10
2022-12-22T17:36:01.482Z,9.00
2022-12-22T17:38:29.959Z,9.00
2022-12-22T17:40:57.712Z,9.00
2022-12-22T17:43:24.989Z,9.10
2022-12-22T17:45:53.549Z,9.00
2022-12-22T17:48:20.706Z,9.00
2022-12-22T17:50:49.855Z,9.00
2022-12-22T17:53:21.356Z,9.10
2022-12-22T17:58:36.273Z,9.10
2022-12-22T18:01:03.645Z,9.10
2022-12-22T18:03:30.717Z,9.00
2022-12-22T18:06:00.155Z,9.00
2022-12-22T18:08:27.344Z,9.10
2022-12-22T18:10:54.415Z,9.10
2022-12-22T18:13:26.897Z,9.10
2022-12-22T18:15:55.935Z,9.10
2022-12-22T18:18:23.228Z,9.10
2022-12-22T18:21:05.758Z,9.00
2022-12-22T18:23:36.575Z,9.00
2022-12-22T18:26:06.442Z,9.00
2022-12-22T18:28:33.838Z,9.00
2022-12-22T18:31:00.996Z,9.00
2022-12-22T18:33:28.075Z,9.10
2022-12-22T18:35:55.190Z,9.10
2022-12-22T18:38:30.948Z,9.10
2022-12-22T18:40:58.242Z,9.10
2022-12-22T18:43:28.335Z,9.10
2022-12-22T18:45:55.496Z,9.10
2022-12-22T18:48:22.569Z,9.10
2022-12-22T18:50:49.698Z,9.10
2022-12-22T18:53:30.564Z,9.20
2022-12-22T18:55:59.024Z,9.20
2022-12-22T18:58:26.778Z,9.30
2022-12-22T19:00:56.136Z,9.30
2022-12-22T19:03:29.065Z,9.30
2022-12-22T19:05:57.346Z,9.30
2022-12-22T19:08:27.243Z,9.30
2022-12-22T19:11:00.197Z,9.20
2022-12-22T19:13:39.526Z,9.20
2022-12-22T19:16:08.387Z,9.10
2022-12-22T19:18:35.470Z,9.10
2022-12-22T19:21:02.584Z,9.10
2022-12-22T19:23:29.702Z,9.10
2022-12-22T19:26:08.454Z,9.00
2022-12-22T19:28:43.043Z,9.00
2022-12-22T19:31:22.258Z,9.00
2022-12-22T19:33:49.983Z,9.00
2022-12-22T19:36:26.649Z,9.00
2022-12-22T19:39:05.510Z,8.90
2022-12-22T19:41:41.197Z,8.90
2022-12-22T19:44:25.833Z,8.90
2022-12-22T19:46:54.689Z,8.90
2022-12-22T19:49:27.649Z,8.90
2022-12-22T19:51:58.707Z,8.90
2022-12-22T19:54:25.830Z,8.90
2022-12-22T19:56:56.166Z,8.90
2022-12-22T19:59:47.087Z,8.90
2022-12-22T20:02:34.637Z,8.90
2022-12-22T20:05:01.788Z,8.80
2022-12-22T20:07:30.606Z,8.80
2022-12-22T20:09:57.731Z,8.80
2022-12-22T20:12:31.198Z,8.80
2022-12-22T20:14:59.279Z,8.80
2022-12-22T20:17:26.386Z,8.80
2022-12-22T20:19:53.574Z,8.90
2022-12-22T20:22:23.077Z,8.90
2022-12-22T20:24:53.397Z,8.90
2022-12-22T20:27:34.941Z,8.90
2022-12-22T20:30:03.748Z,8.90
2022-12-22T20:32:30.854Z,8.90
2022-12-22T20:34:57.971Z,8.90
2022-12-22T20:37:25.587Z,9.00
2022-12-22T20:39:52.650Z,9.00
2022-12-22T20:42:24.020Z,9.00
2022-12-22T20:45:02.968Z,9.00
2022-12-22T20:47:33.900Z,9.00
2022-12-22T20:50:03.476Z,9.00
2022-12-22T20:52:30.576Z,9.00
2022-12-22T20:54:57.674Z,9.00
2022-12-22T20:57:26.466Z,9.00
2022-12-22T20:59:57.592Z,9.00
2022-12-22T21:02:29.939Z,9.10
2022-12-22T21:04:57.534Z,9.10
2022-12-22T21:07:24.748Z,9.10
2022-12-22T21:09:51.876Z,9.10
2022-12-22T21:12:18.978Z,9.10
2022-12-22T21:14:46.140Z,9.10
2022-12-22T21:17:18.257Z,9.10
2022-12-22T21:19:45.548Z,9.20
2022-12-22T21:22:12.696Z,9.10
2022-12-22T21:24:41.862Z,9.10
2022-12-22T21:27:18.660Z,9.20
2022-12-22T21:29:46.337Z,9.20
2022-12-22T21:32:16.930Z,9.20
2022-12-22T21:34:44.045Z,9.10
2022-12-22T21:37:18.950Z,9.10
2022-12-22T21:39:46.138Z,9.20
2022-12-22T21:42:18.641Z,9.10
2022-12-22T21:44:46.176Z,9.10
2022-12-22T21:47:16.882Z,9.10
2022-12-22T21:49:43.988Z,9.10
2022-12-22T21:52:11.026Z,9.10
2022-12-22T21:54:38.112Z,9.10
2022-12-22T21:57:05.998Z,9.00
2022-12-22T21:59:33.116Z,9.00
2022-12-22T22:02:00.386Z,9.00
2022-12-22T22:04:27.587Z,9.00
2022-12-22T22:06:54.707Z,9.00
2022-12-22T22:09:21.745Z,9.00
2022-12-22T22:12:07.205Z,9.00
2022-12-22T22:14:34.392Z,9.00
2022-12-22T22:17:01.497Z,9.00
2022-12-22T22:19:28.671Z,8.90
2022-12-22T22:21:55.732Z,9.00
2022-12-22T22:24:22.838Z,8.90
2022-12-22T22:26:51.809Z,8.90
2022-12-22T22:29:19.223Z,8.90
2022-12-22T22:31:46.559Z,8.90
2022-12-22T22:34:14.078Z,8.90
2022-12-22T22:36:41.131Z,8.80
2022-12-22T22:39:09.171Z,8.90
2022-12-22T22:41:42.645Z,8.90
2022-12-22T22:44:11.032Z,8.80
2022-12-22T22:46:39.311Z,8.80
2022-12-22T22:49:07.604Z,8.80
2022-12-22T22:51:34.678Z,8.80
2022-12-22T22:54:01.883Z,8.80
2022-12-22T22:56:28.973Z,8.80
2022-12-22T22:58:56.116Z,8.80
2022-12-22T23:01:23.228Z,8.80
2022-12-22T23:03:50.380Z,8.80
2022-12-22T23:06:17.540Z,8.80
2022-12-22T23:08:44.672Z,8.90
2022-12-22T23:11:14.494Z,8.90
2022-12-22T23:13:42.892Z,8.90
2022-12-22T23:16:10.853Z,8.90
2022-12-22T23:18:38.355Z,8.90
2022-12-22T23:21:07.492Z,8.90
2022-12-22T23:23:35.867Z,8.90
2022-12-22T23:26:03.211Z,8.90
2022-12-22T23:28:30.342Z,8.90
2022-12-22T23:30:57.523Z,8.90
2022-12-22T23:33:24.919Z,8.90
2022-12-22T23:35:52.851Z,8.90
2022-12-22T23:38:21.147Z,8.90
2022-12-22T23:40:55.960Z,8.90
2022-12-22T23:43:23.193Z,8.90
2022-12-22T23:45:50.312Z,8.90
2022-12-22T23:48:17.454Z,8.90
2022-12-22T23:50:48.972Z,8.90
2022-12-22T23:53:17.369Z,8.90
2022-12-22T23:55:45.920Z,8.90
2022-12-22T23:58:13.461Z,8.90
